首页
METAR-TAF:

METAR-TAF

机场 :

蓬塔阿雷纳斯, 智利

纬度: 53-00S, 经度: 070-51W, 海拔: 37米

当前天气观测

该预报发布于43分钟前的14:00 UTC
风速1节,风向北转西北
温度 6°C
湿度 87%
气压 1004 hPa
能見度: 8000
少量云层高于3000英尺
多云层高于5000英尺
阴天层高于9000英尺
小雨

METAR: SCCI 251400Z 33001KT 8000 -RA FEW030 BKN050 OVC090 06/04 Q1004 NOSIG

时间: 11:43 (14:43 UTC)

预报

该预报发布于3小时和38分钟前的11:05 UTC
预报有效从25日的 12点(UTC)到 26日的 12点(UTC)
风速5节,风向西
能見度: 9000
多云层高于4500英尺
短暂存在
从 25日的 12点(UTC)到 25日的 16点(UTC)
风速3节,风向多变
成为
从 25日的 15点(UTC)到 25日的 17点(UTC)
风速10节,风向南转南东
能見度: 8000
多云层高于4000英尺
小雨
成为
从 25日的 22点(UTC)到 26日的 00点(UTC)
风速12节,风向东转东南
少量云层高于2000英尺
多云层高于3000英尺
成为
从 26日的 02点(UTC)到 26日的 04点(UTC)
风速20节,风向东转东南
成为
从 26日的 02点(UTC)到 26日的 04点(UTC)
能見度: 6000
少量云层高于1800英尺
多云层高于2500英尺
短暂存在
从 26日的 03点(UTC)到 26日的 12点(UTC)
能見度: 3000
少量云层高于800英尺
散云层高于1500英尺
多云层高于2000英尺
雨, 雪, 轻雾

TAF: SCCI 251105Z 2512/2612 28005KT 9000 BKN045 TN02/2609Z TX09/25Z 16Z TEMPO 2512/2516 VRB03KT BECMG 2515/2517 15010KT 8000 -RA BKN040 BECMG 2522/2600 12012KT FEW020 BKN030 BECMG 2602/2604 12020KT BECMG 2602/2604 6000 RA FEW018 BKN025 TEMPO 2603/2612 3000 RASN BR FEW008 SCT015 BKN020

超过4000个机场的气象观测和天气预报(METAR&TAF报告)。

可查询的气象台以黄色和红色小点在地图上表示。

将鼠标移到小点上方,可查看气象台名称。

然后点击查看天气观测和预报。

如需切换地图:点击带黑十字的绿色按钮放大地图;点击带横线的绿色按钮缩小地图;或者点击绿色箭头查看邻近地区的地图。


METAR-TAF: